.
WxDataArchive / Data Records for 2011-10-07
2011-10-06 October 2011 2011-10-08

Data Records for Friday, 07 October 2011

Time	Temp	Chill	HIndex	Humid	Dewpt	 Wind 	HiWind	WindDir	Rain 	Barom 
-----	----	-----	------	-----	-----	------	------	-------	-----	----- 
00:00	55.0	55.0	55.0	87	51.2	0	0	---	0.00	30.283 
00:05	55.0	55.0	55.0	87	51.2	0	0	---	0.00	30.283 
00:10	54.8	54.8	54.8	87	51.0	0	0	---	0.00	30.283 
00:15	54.7	54.7	54.7	87	50.9	0	0	---	0.00	30.282 
00:20	54.5	54.5	54.5	87	50.7	0	0	---	0.00	30.282 
00:25	54.5	54.5	54.5	88	51.0	0	0	---	0.00	30.282 
00:30	54.4	54.4	54.4	88	50.9	0	0	---	0.00	30.281 
00:35	54.2	54.2	54.2	88	50.7	0	0	---	0.00	30.281 
00:40	54.2	54.2	54.2	88	50.7	0	0	---	0.00	30.281 
00:45	54.1	54.1	54.1	88	50.6	0	0	---	0.00	30.281 
00:50	53.9	53.9	53.9	88	50.4	0	0	---	0.00	30.281 
00:55	53.8	53.8	53.8	89	50.6	0	0	---	0.00	30.281 
01:00	53.6	53.6	53.6	89	50.4	0	0	---	0.00	30.283 
01:05	53.5	53.5	53.5	89	50.3	0	0	---	0.00	30.283 
01:10	53.3	53.3	53.3	89	50.1	0	0	---	0.00	30.283 
01:15	53.2	53.2	53.2	89	50.0	0	0	---	0.00	30.283 
01:20	53.2	53.2	53.2	90	50.3	0	0	---	0.00	30.283 
01:25	53.2	53.2	53.2	90	50.3	0	0	---	0.00	30.283 
01:30	53.1	53.1	53.1	90	50.2	0	0	---	0.00	30.283 
01:35	52.9	52.9	52.9	90	50.0	0	0	---	0.00	30.283 
01:40	52.9	52.9	52.9	91	50.3	0	0	---	0.00	30.283 
01:45	52.8	52.8	52.8	91	50.2	0	0	---	0.00	30.283 
01:50	52.6	52.6	52.6	91	50.0	0	0	---	0.00	30.283 
01:55	52.6	52.6	52.6	91	50.0	0	0	---	0.00	30.283 
02:00	52.5	52.5	52.5	91	49.9	0	0	---	0.00	30.294 
02:05	52.5	52.5	52.5	91	49.9	0	0	---	0.00	30.294 
02:10	52.3	52.3	52.3	91	49.8	0	0	---	0.00	30.294 
02:15	52.2	52.2	52.2	91	49.7	0	0	---	0.00	30.293 
02:20	52.0	52.0	52.0	92	49.7	0	0	---	0.00	30.293 
02:25	51.9	51.9	51.9	92	49.6	0	0	---	0.00	30.293 
02:30	51.9	51.9	51.9	92	49.6	0	0	---	0.00	30.295 
02:35	51.7	51.7	51.7	92	49.5	0	0	---	0.00	30.295 
02:40	51.6	51.6	51.6	92	49.4	0	0	---	0.00	30.295 
02:45	51.4	51.4	51.4	92	49.2	0	0	---	0.00	30.294 
02:50	51.4	51.4	51.4	92	49.2	0	0	---	0.00	30.294 
02:55	51.3	51.3	51.3	92	49.1	0	0	---	0.00	30.294 
03:00	51.3	51.3	51.3	92	49.1	0	0	---	0.00	30.294 
03:05	51.1	51.1	51.1	92	48.9	0	0	---	0.00	30.294 
03:10	51.0	51.0	51.0	92	48.8	0	0	---	0.00	30.294 
03:15	50.8	50.8	50.8	92	48.6	0	0	---	0.00	30.291 
03:20	50.8	50.8	50.8	93	48.8	0	0	---	0.00	30.291 
03:25	50.7	50.7	50.7	92	48.5	0	0	---	0.00	30.291 
03:30	50.5	50.5	50.5	93	48.6	0	0	---	0.00	30.290 
03:35	50.5	50.5	50.5	93	48.6	0	0	---	0.00	30.290 
03:40	50.5	50.5	50.5	93	48.6	0	0	---	0.00	30.290 
03:45	50.5	50.5	50.5	93	48.6	0	0	---	0.00	30.293 
03:50	50.4	50.4	50.4	93	48.5	0	0	---	0.00	30.293 
03:55	50.2	50.2	50.2	93	48.3	0	0	---	0.00	30.293 
04:00	50.2	50.2	50.2	93	48.3	0	0	---	0.00	30.295 
04:05	50.1	50.1	50.1	93	48.2	0	0	---	0.00	30.295 
04:10	49.9	49.9	49.9	93	48.0	0	0	---	0.00	30.295 
04:15	49.8	49.8	49.8	93	47.9	0	0	---	0.00	30.294 
04:20	49.8	49.8	49.8	93	47.9	0	0	---	0.00	30.294 
04:25	49.8	49.8	49.8	94	48.1	0	0	---	0.00	30.294 
04:30	49.8	49.8	49.8	93	47.9	0	0	---	0.00	30.296 
04:35	49.6	49.6	49.6	94	47.9	0	0	---	0.00	30.296 
04:40	49.5	49.5	49.5	94	47.8	0	0	---	0.00	30.296 
04:45	49.5	49.5	49.5	94	47.8	0	0	---	0.00	30.298 
04:50	49.5	49.5	49.5	94	47.8	0	0	---	0.00	30.298 
04:55	49.4	49.4	49.4	94	47.7	0	0	---	0.00	30.298 
05:00	49.4	49.4	49.4	94	47.7	0	0	---	0.00	30.305 
05:05	49.2	49.2	49.2	94	47.5	0	0	---	0.00	30.305 
05:10	49.1	49.1	49.1	94	47.4	0	0	---	0.00	30.305 
05:15	49.1	49.1	49.1	94	47.4	0	0	---	0.00	30.307 
05:20	48.9	48.9	48.9	94	47.2	0	0	---	0.00	30.307 
05:25	48.9	48.9	48.9	94	47.2	0	0	---	0.00	30.307 
05:30	48.8	48.8	48.8	94	47.1	0	0	---	0.00	30.310 
05:35	48.9	48.9	48.9	94	47.2	0	0	---	0.00	30.310 
05:40	48.9	48.9	48.9	94	47.2	0	0	---	0.00	30.310 
05:45	48.9	48.9	48.9	94	47.2	0	0	---	0.00	30.314 
05:50	48.9	48.9	48.9	94	47.2	0	0	---	0.00	30.314 
05:55	48.8	48.8	48.8	94	47.1	0	0	---	0.00	30.314 
06:00	48.6	48.6	48.6	94	47.0	0	0	---	0.00	30.317 
06:05	48.5	48.5	48.5	94	46.9	0	0	---	0.00	30.317 
06:10	48.3	48.3	48.3	94	46.7	0	0	---	0.00	30.317 
06:15	48.3	48.3	48.3	95	46.9	0	0	---	0.00	30.324 
06:20	48.5	48.5	48.5	95	47.1	0	0	---	0.00	30.324 
06:25	48.5	48.5	48.5	95	47.1	0	0	---	0.00	30.324 
06:30	48.5	48.5	48.5	95	47.1	0	0	---	0.00	30.330 
06:35	48.3	48.3	48.3	95	46.9	0	0	---	0.00	30.330 
06:40	48.3	48.3	48.3	95	46.9	0	0	---	0.00	30.330 
06:45	48.3	48.3	48.3	95	46.9	0	0	---	0.00	30.335 
06:50	48.5	48.5	48.5	95	47.1	0	0	---	0.00	30.335 
06:55	48.5	48.5	48.5	95	47.1	0	0	---	0.00	30.335 
07:00	48.5	48.5	48.5	95	47.1	0	0	---	0.00	30.341 
07:05	48.5	48.5	48.5	95	47.1	0	0	---	0.00	30.341 
07:10	48.3	48.3	48.3	95	46.9	0	0	---	0.00	30.341 
07:15	48.2	48.2	48.2	95	46.8	0	0	---	0.00	30.351 
07:20	48.0	48.0	48.0	95	46.6	0	0	---	0.00	30.351 
07:25	47.9	47.9	47.9	95	46.5	0	0	---	0.00	30.351 
07:30	47.9	47.9	47.9	95	46.5	0	0	---	0.00	30.355 
07:35	47.9	47.9	47.9	95	46.5	0	0	---	0.00	30.355 
07:40	47.9	47.9	47.9	95	46.5	0	0	---	0.00	30.355 
07:45	47.9	47.9	47.9	95	46.5	0	0	---	0.00	30.359 
07:50	47.7	47.7	47.7	95	46.3	0	0	---	0.00	30.359 
07:55	47.7	47.7	47.7	95	46.3	0	0	---	0.00	30.359 
08:00	47.9	47.9	47.9	95	46.5	0	0	---	0.00	30.364 
08:05	47.9	47.9	47.9	95	46.5	0	0	---	0.00	30.364 
08:10	48.0	48.0	48.0	95	46.6	0	0	---	0.00	30.364 
08:15	48.2	48.2	48.2	95	46.8	0	0	---	0.00	30.373 
08:20	48.5	48.5	48.5	96	47.4	0	0	---	0.00	30.373 
08:25	48.8	48.8	48.8	96	47.7	0	0	---	0.00	30.373 
08:30	49.5	49.5	49.5	96	48.4	0	0	---	0.00	30.375 
08:35	50.1	50.1	50.1	96	49.0	0	0	---	0.00	30.375 
08:40	50.7	50.7	50.7	96	49.6	0	1	68	0.00	30.375 
08:45	51.0	51.0	51.0	96	49.9	0	0	---	0.00	30.374 
08:50	51.3	51.3	51.3	96	50.2	0	0	---	0.00	30.374 
08:55	51.7	51.7	51.7	96	50.6	0	0	---	0.00	30.374 
09:00	51.9	51.9	51.9	96	50.8	0	0	---	0.00	30.376 
09:05	52.2	52.2	52.2	96	51.1	0	0	---	0.00	30.376 
09:10	52.5	52.5	52.5	96	51.4	0	0	---	0.00	30.376 
09:15	52.8	52.8	52.8	96	51.7	0	0	---	0.00	30.379 
09:20	53.1	53.1	53.1	96	52.0	0	0	---	0.00	30.379 
09:25	53.5	53.5	53.5	96	52.4	0	0	---	0.00	30.379 
09:30	53.9	53.9	53.9	96	52.8	0	1	68	0.00	30.386 
09:35	54.2	54.2	54.2	96	53.1	0	1	68	0.00	30.386 
09:40	54.7	54.7	54.7	95	53.3	0	1	68	0.00	30.386 
09:45	55.3	55.3	55.3	94	53.6	0	0	---	0.00	30.386 
09:50	56.0	56.0	56.0	94	54.3	0	1	68	0.00	30.386 
09:55	56.7	56.7	56.7	92	54.4	0	1	68	0.00	30.386 
10:00	57.3	57.3	57.3	91	54.7	0	0	---	0.00	30.385 
10:05	58.1	58.1	58.1	90	55.2	0	1	68	0.00	30.385 
10:10	59.0	59.0	59.0	88	55.4	0	0	---	0.00	30.385 
10:15	60.1	60.1	60.1	85	55.6	0	0	---	0.00	30.386 
10:20	61.2	61.2	61.2	81	55.3	0	0	---	0.00	30.386 
10:25	62.6	62.6	62.6	76	54.9	0	0	---	0.00	30.386 
10:30	63.9	63.9	63.9	71	54.3	0	0	---	0.00	30.388 
10:35	65.0	65.0	65.0	69	54.6	0	0	---	0.00	30.388 
10:40	66.1	66.1	66.1	66	54.4	0	0	---	0.00	30.388 
10:45	67.1	67.1	67.1	63	54.1	0	0	---	0.00	30.386 
10:50	67.9	67.9	67.9	63	54.8	0	0	---	0.00	30.386 
10:55	68.8	68.8	68.8	61	54.8	0	0	---	0.00	30.386 
11:00	69.3	69.3	69.3	60	54.8	0	0	---	0.00	30.382 
11:05	69.9	69.9	69.9	61	55.8	0	0	---	0.00	30.382 
11:10	70.6	70.6	70.6	59	55.6	0	0	---	0.00	30.382 
11:15	71.1	71.1	71.1	57	55.1	0	0	---	0.00	30.382 
11:20	71.8	71.8	71.8	57	55.7	0	0	---	0.00	30.382 
11:25	72.3	72.3	72.3	57	56.2	0	1	68	0.00	30.382 
11:30	72.8	72.8	72.8	55	55.7	0	0	---	0.00	30.377 
11:35	73.3	73.3	73.3	53	55.1	0	1	68	0.00	30.377 
11:40	73.9	73.9	73.9	53	55.7	0	0	---	0.00	30.377 
11:45	74.6	74.6	74.6	55	57.3	0	0	---	0.00	30.375 
11:50	74.6	74.6	74.6	51	55.3	0	0	---	0.00	30.375 
11:55	74.9	74.9	74.9	52	56.1	0	0	---	0.00	30.375 
12:00	74.7	74.7	74.7	54	56.9	0	0	---	0.00	30.373 
12:05	75.3	75.3	77.7	51	55.9	0	0	---	0.00	30.373 
12:10	75.8	75.8	78.0	50	55.8	0	0	---	0.00	30.373 
12:15	76.1	76.1	78.1	48	55.0	0	0	---	0.00	30.372 
12:20	76.3	76.3	78.2	49	55.7	0	0	---	0.00	30.372 
12:25	76.7	76.7	78.4	48	55.5	0	0	---	0.00	30.372 
12:30	76.8	76.8	78.4	47	55.0	0	0	---	0.00	30.366 
12:35	77.2	77.2	78.5	43	52.9	0	0	---	0.00	30.366 
12:40	77.7	77.7	78.8	44	54.0	0	0	---	0.00	30.366 
12:45	77.7	77.7	78.7	43	53.4	0	0	---	0.00	30.364 
12:50	77.9	77.9	78.8	43	53.6	0	0	---	0.00	30.364 
12:55	78.3	78.3	79.0	42	53.3	0	0	---	0.00	30.364 
13:00	78.6	78.6	79.2	43	54.2	0	0	---	0.00	30.362 
13:05	78.6	78.6	79.0	40	52.2	0	0	---	0.00	30.362 
13:10	79.0	79.0	79.3	40	52.6	0	0	---	0.00	30.362 
13:15	79.2	79.2	79.8	45	56.0	0	0	---	0.00	30.356 
13:20	79.2	79.2	79.5	42	54.1	0	0	---	0.00	30.356 
13:25	79.4	79.4	79.5	40	52.9	0	1	68	0.00	30.356 
13:30	79.6	79.6	79.6	39	52.4	0	0	---	0.00	30.354 
13:35	79.6	79.6	79.7	41	53.8	0	0	---	0.00	30.354 
13:40	79.6	79.6	79.6	39	52.4	0	0	---	0.00	30.354 
13:45	79.6	79.6	79.3	35	49.5	0	2	90	0.00	30.346 
13:50	79.8	79.8	79.7	39	52.6	0	0	---	0.00	30.346 
13:55	79.9	79.9	79.7	38	52.0	0	1	45	0.00	30.346 
14:00	79.9	79.9	79.8	39	52.7	0	0	---	0.00	30.340 
14:05	79.9	79.9	79.6	36	50.5	0	2	112	0.00	30.340 
14:10	79.9	79.9	79.6	36	50.5	0	1	135	0.00	30.340 
14:15	79.8	79.8	79.4	35	49.7	0	2	90	0.00	30.334 
14:20	79.4	79.4	79.3	37	50.8	0	3	90	0.00	30.334 
14:25	79.2	79.2	79.1	35	49.2	0	4	112	0.00	30.334 
14:30	79.2	79.2	79.2	37	50.7	0	4	90	0.00	30.328 
14:35	79.4	79.4	79.2	36	50.1	0	3	68	0.00	30.328 
14:40	79.6	79.6	79.4	36	50.3	0	0	---	0.00	30.328 
14:45	79.8	79.8	79.4	35	49.7	0	1	90	0.00	30.324 
14:50	79.9	79.9	79.4	34	49.0	0	3	90	0.00	30.324 
14:55	79.9	79.9	79.4	34	49.0	0	3	68	0.00	30.324 
15:00	80.1	80.1	79.5	34	49.2	0	2	135	0.00	30.320 
15:05	80.1	80.1	79.4	32	47.6	0	1	90	0.00	30.320 
15:10	80.3	80.3	79.6	33	48.5	0	0	---	0.00	30.320 
15:15	80.3	80.3	79.5	32	47.7	0	4	90	0.00	30.321 
15:20	80.3	80.3	79.7	35	50.1	0	4	112	0.00	30.321 
15:25	80.1	80.1	79.4	32	47.6	0	0	---	0.00	30.321 
15:30	80.1	80.1	79.3	31	46.7	0	1	112	0.00	30.321 
15:35	80.3	80.3	79.3	29	45.1	0	3	112	0.00	30.321 
15:40	80.5	80.5	79.5	30	46.2	0	2	90	0.00	30.321 
15:45	80.5	80.5	79.5	30	46.2	0	1	135	0.00	30.322 
15:50	80.5	80.5	79.5	30	46.2	0	3	90	0.00	30.322 
15:55	80.7	80.7	79.7	31	47.2	0	0	---	0.00	30.322 
16:00	80.7	80.7	79.8	32	48.1	0	0	---	0.00	30.319 
16:05	80.7	80.7	79.8	32	48.1	0	2	90	0.00	30.319 
16:10	80.7	80.7	79.7	31	47.2	0	1	90	0.00	30.319 
16:15	80.3	80.3	79.5	32	47.7	0	2	90	0.00	30.316 
16:20	80.1	80.1	79.4	32	47.6	0	1	90	0.00	30.316 
16:25	79.9	79.9	79.2	31	46.5	0	4	90	0.00	30.316 
16:30	79.8	79.8	79.3	33	48.1	0	1	90	0.00	30.315 
16:35	79.8	79.8	79.1	30	45.6	0	2	90	0.00	30.315 
16:40	79.8	79.8	79.2	32	47.3	0	1	112	0.00	30.315 
16:45	79.8	79.8	79.3	33	48.1	0	2	45	0.00	30.313 
16:50	79.8	79.8	79.1	31	46.5	0	2	90	0.00	30.313 
16:55	79.8	79.8	79.3	33	48.1	0	1	68	0.00	30.313 
17:00	79.6	79.6	79.0	31	46.3	0	5	90	0.00	30.313 
17:05	79.4	79.4	78.9	31	46.1	0	1	135	0.00	30.313 
17:10	79.4	79.4	78.9	31	46.1	0	2	112	0.00	30.313 
17:15	79.2	79.2	78.9	32	46.8	0	2	112	0.00	30.313 
17:20	79.0	79.0	78.9	34	48.2	0	1	135	0.00	30.313 
17:25	79.0	79.0	78.8	32	46.6	0	3	112	0.00	30.313 
17:30	79.0	79.0	78.8	33	47.4	0	2	112	0.00	30.312 
17:35	78.8	78.8	78.6	32	46.4	0	1	112	0.00	30.312 
17:40	78.6	78.6	78.5	32	46.3	0	2	112	0.00	30.312 
17:45	78.6	78.6	78.6	33	47.1	0	2	135	0.00	30.312 
17:50	78.5	78.5	78.6	33	47.0	0	3	135	0.00	30.312 
17:55	78.3	78.3	78.6	35	48.4	0	1	180	0.00	30.312 
18:00	78.1	78.1	78.4	34	47.4	0	3	135	0.00	30.313 
18:05	78.1	78.1	78.4	34	47.4	0	2	135	0.00	30.313 
18:10	77.9	77.9	78.3	34	47.2	0	2	158	0.00	30.313 
18:15	77.7	77.7	78.3	35	47.8	0	2	158	0.00	30.312 
18:20	77.6	77.6	78.2	34	47.0	0	3	135	0.00	30.312 
18:25	77.4	77.4	78.1	35	47.6	0	2	68	0.00	30.312 
18:30	77.2	77.2	78.1	36	48.2	0	1	68	0.00	30.311 
18:35	76.8	76.8	77.9	36	47.8	0	0	---	0.00	30.311 
18:40	76.5	76.5	77.9	37	48.3	0	1	68	0.00	30.311 
18:45	76.1	76.1	77.7	37	47.9	0	1	68	0.00	30.312 
18:50	75.8	75.8	77.7	38	48.4	0	0	---	0.00	30.312 
18:55	75.3	75.3	77.6	40	49.3	0	1	68	0.00	30.312 
19:00	74.7	74.7	74.7	42	50.1	0	0	---	0.00	30.313 
19:05	74.0	74.0	74.0	43	50.1	0	0	---	0.00	30.313 
19:10	73.3	73.3	73.3	44	50.1	0	0	---	0.00	30.313 
19:15	72.5	72.5	72.5	45	49.9	0	0	---	0.00	30.318 
19:20	71.8	71.8	71.8	46	49.9	0	0	---	0.00	30.318 
19:25	71.1	71.1	71.1	48	50.4	0	0	---	0.00	30.318 
19:30	70.4	70.4	70.4	49	50.3	0	0	---	0.00	30.322 
19:35	69.6	69.6	69.6	50	50.1	0	0	---	0.00	30.322 
19:40	68.9	68.9	68.9	51	50.0	0	0	---	0.00	30.322 
19:45	68.3	68.3	68.3	52	50.0	0	0	---	0.00	30.327 
19:50	67.8	67.8	67.8	53	50.0	0	0	---	0.00	30.327 
19:55	67.1	67.1	67.1	55	50.4	0	0	---	0.00	30.327 
20:00	66.6	66.6	66.6	58	51.4	0	0	---	0.00	30.334 
20:05	65.8	65.8	65.8	60	51.5	0	0	---	0.00	30.334 
20:10	65.2	65.2	65.2	62	51.8	0	0	---	0.00	30.334 
20:15	64.7	64.7	64.7	62	51.4	0	0	---	0.00	30.334 
20:20	64.2	64.2	64.2	63	51.3	0	0	---	0.00	30.334 
20:25	63.9	63.9	63.9	64	51.5	0	0	---	0.00	30.334 
20:30	63.5	63.5	63.5	65	51.5	0	0	---	0.00	30.336 
20:35	63.2	63.2	63.2	65	51.2	0	0	---	0.00	30.336 
20:40	62.9	62.9	62.9	66	51.4	0	0	---	0.00	30.336 
20:45	62.6	62.6	62.6	67	51.5	0	0	---	0.00	30.339 
20:50	62.3	62.3	62.3	69	52.0	0	0	---	0.00	30.339 
20:55	62.0	62.0	62.0	70	52.1	0	0	---	0.00	30.339 
21:00	61.6	61.6	61.6	70	51.7	0	0	---	0.00	30.340 
21:05	61.3	61.3	61.3	71	51.8	0	0	---	0.00	30.340 
21:10	61.0	61.0	61.0	73	52.3	0	0	---	0.00	30.340 
21:15	60.7	60.7	60.7	73	52.0	0	0	---	0.00	30.337 
21:20	60.5	60.5	60.5	74	52.2	0	0	---	0.00	30.337 
21:25	60.2	60.2	60.2	75	52.2	0	0	---	0.00	30.337 
21:30	60.1	60.1	60.1	76	52.5	0	0	---	0.00	30.342 
21:35	59.9	59.9	59.9	77	52.7	0	0	---	0.00	30.342 
21:40	59.8	59.8	59.8	77	52.6	0	0	---	0.00	30.342 
21:45	59.6	59.6	59.6	78	52.7	0	0	---	0.00	30.346 
21:50	59.3	59.3	59.3	79	52.8	0	0	---	0.00	30.346 
21:55	59.2	59.2	59.2	79	52.7	0	0	---	0.00	30.346 
22:00	58.9	58.9	58.9	80	52.7	0	0	---	0.00	30.346 
22:05	58.7	58.7	58.7	80	52.5	0	0	---	0.00	30.346 
22:10	58.4	58.4	58.4	81	52.6	0	0	---	0.00	30.346 
22:15	58.3	58.3	58.3	81	52.5	0	0	---	0.00	30.335 
22:20	58.1	58.1	58.1	83	53.0	0	0	---	0.00	30.335 
22:25	58.0	58.0	58.0	84	53.2	0	0	---	0.00	30.335 
22:30	57.6	57.6	57.6	84	52.8	0	0	---	0.00	30.333 
22:35	57.6	57.6	57.6	85	53.1	0	0	---	0.00	30.333 
22:40	57.5	57.5	57.5	85	53.0	0	0	---	0.00	30.333 
22:45	57.3	57.3	57.3	85	52.8	0	0	---	0.00	30.332 
22:50	57.3	57.3	57.3	85	52.8	0	0	---	0.00	30.332 
22:55	57.0	57.0	57.0	85	52.5	0	0	---	0.00	30.332 
23:00	57.0	57.0	57.0	86	52.9	0	0	---	0.00	30.335 
23:05	56.9	56.9	56.9	86	52.8	0	0	---	0.00	30.335 
23:10	56.7	56.7	56.7	86	52.6	0	0	---	0.00	30.335 
23:15	56.5	56.5	56.5	86	52.4	0	0	---	0.00	30.334 
23:20	56.5	56.5	56.5	86	52.4	0	0	---	0.00	30.334 
23:25	56.3	56.3	56.3	87	52.5	0	0	---	0.00	30.334 
23:30	56.2	56.2	56.2	87	52.4	0	0	---	0.00	30.338 
23:35	55.9	55.9	55.9	87	52.1	0	0	---	0.00	30.338 
23:40	55.9	55.9	55.9	87	52.1	0	0	---	0.00	30.338 
23:45	55.7	55.7	55.7	87	51.9	0	0	---	0.00	30.334 
23:50	55.6	55.6	55.6	88	52.1	0	0	---	0.00	30.334 
23:55	55.4	55.4	55.4	88	51.9	0	0	---	0.00	30.334 

CoCoRaHS
IN-AL-39
A2 Web Hosting
Creative Commons License
GoDaddy
search engine by freefind advanced

loaded 2018-11-19 10:32:43 • last modified 2010-11-18 10:43:29
Privacy PolicyDisclaimer
• wx.awcolley.com is powered by PmWiki v.2002016 •
• all content (unless otherwise noted) © 2018 A W Colley